This is the latest recevied weather packets stored in our database for station/object KR4BRU. If no packets are shown the sender has not sent any weather packets the latest 10 day(s).
| Time | Temp. | Humidity | Pressure | Rain* | Wind** | Luminosity | Snow |
|---|---|---|---|---|---|---|---|
| 1777840261 | 21.11° C | 29% | 1014.4 hPa | 0 mm | - | 184 W/m² | - |
| 1777839656 | 21.67° C | 28% | 1014.9 hPa | 0 mm | - | 72 W/m² | - |
| 1777839051 | 21.11° C | 27% | 1015 hPa | 0 mm | - | 71 W/m² | - |
| 1777838450 | 21.11° C | 26% | 1015.2 hPa | 0 mm | - | 805 W/m² | - |
| 1777837850 | 21.67° C | 28% | 1015.4 hPa | 0 mm | - | 829 W/m² | - |
| 1777837247 | 21.67° C | 28% | 1015.5 hPa | 0 mm | - | 853 W/m² | - |
| 1777836644 | 22.22° C | 28% | 1015.6 hPa | 0 mm | - | 881 W/m² | - |
| 1777836042 | 21.11° C | 30% | 1015.7 hPa | 0 mm | - | 903 W/m² | - |
| 1777835442 | 21.11° C | 32% | 1015.9 hPa | 0 mm | - | 924 W/m² | - |
| 1777834842 | 20.56° C | 31% | 1016 hPa | 0 mm | - | 941 W/m² | - |
| 1777834238 | 20° C | 33% | 1016.1 hPa | 0 mm | - | 952 W/m² | - |
| 1777833637 | 20° C | 33% | 1016.2 hPa | 0 mm | - | 967 W/m² | - |
| 1777833037 | 18.89° C | 33% | 1016.6 hPa | 0 mm | - | 974 W/m² | - |
| 1777832433 | 20° C | 33% | 1016.7 hPa | 0 mm | - | 978 W/m² | - |
| 1777831832 | 20.56° C | 31% | 1016.7 hPa | 0 mm | - | 988 W/m² | - |
| 1777831226 | 19.44° C | 32% | 1016.7 hPa | 0 mm | - | 991 W/m² | - |
| 1777830626 | 20° C | 31% | 1016.9 hPa | 0 mm | - | 995 W/m² | - |
| 1777830026 | 20° C | 33% | 1017.4 hPa | 0 mm | - | 997 W/m² | - |
| 1777829423 | 20° C | 30% | 1017.4 hPa | 0 mm | - | 996 W/m² | - |
| 1777828824 | 18.33° C | 35% | 1017.6 hPa | 0 mm | - | 993 W/m² | - |
| 1777828218 | 20.56° C | 30% | 1017.7 hPa | 0 mm | - | 984 W/m² | - |
| 1777827617 | 20° C | 31% | 1017.6 hPa | 0 mm | - | 982 W/m² | - |
| 1777827016 | 19.44° C | 31% | 1018 hPa | 0 mm | - | 976 W/m² | - |
| 1777826416 | 19.44° C | 30% | 1018.1 hPa | 0 mm | - | 882 W/m² | - |
| 1777825816 | 19.44° C | 32% | 1018 hPa | 0 mm | - | 951 W/m² | - |
* Rain latest hour (hover to see other rain measurements)
** Current wind speed in m/s (hover to see current wind gust speed)